Time;durP1;ratioP1;P1;durP2;ratioP2;P2;SDS_P1;SDS_P2;PMS_P1;PMS_P2;Temp;Humidity;BMP_temperature;BMP_pressure;BME280_temperature;BME280_humidity;BME280_pressure;Samples;Min_cycle;Max_cycle;Signal;HPM_P1;HPM_P2
2024/04/06 00:00:57;;;;;;;1.95;1.73;;;15.80;32.90;;;;;;5009505;28;20246;-88
2024/04/06 00:03:23;;;;;;;3.42;1.92;;;15.90;32.30;;;;;;5006158;28;20653;-88
2024/04/06 00:05:50;;;;;;;4.75;2.45;;;15.90;33.50;;;;;;5006787;28;20282;-88
2024/04/06 00:08:17;;;;;;;4.90;3.47;;;16.00;33.20;;;;;;5009838;28;20199;-88
2024/04/06 00:10:43;;;;;;;4.47;1.95;;;16.00;32.90;;;;;;5005866;28;21560;-88
2024/04/06 00:13:10;;;;;;;2.20;1.98;;;15.90;38.60;;;;;;5011572;28;20210;-88
2024/04/06 00:15:36;;;;;;;4.35;2.00;;;15.80;38.30;;;;;;5004352;28;20207;-88
2024/04/06 00:18:03;;;;;;;2.42;1.77;;;15.80;36.60;;;;;;4991562;28;20200;-88
2024/04/06 00:20:29;;;;;;;2.95;1.80;;;15.80;36.40;;;;;;5000999;28;20221;-88
2024/04/06 00:22:57;;;;;;;6.00;3.60;;;16.00;35.80;;;;;;5009325;28;20192;-88
2024/04/06 00:25:23;;;;;;;3.13;2.00;;;16.00;36.70;;;;;;5006172;28;20215;-88
2024/04/06 00:27:49;;;;;;;1.60;1.45;;;15.90;36.10;;;;;;5008842;28;21063;-88
2024/04/06 00:30:15;;;;;;;2.75;2.10;;;15.80;40.40;;;;;;4990961;28;20197;-88
2024/04/06 00:32:42;;;;;;;2.78;2.47;;;15.80;42.50;;;;;;5007439;28;20204;-88
2024/04/06 00:35:08;;;;;;;2.65;1.77;;;15.70;43.90;;;;;;5014612;28;20195;-88
2024/04/06 00:37:35;;;;;;;2.88;2.08;;;15.70;43.60;;;;;;4995468;28;20225;-88
2024/04/06 00:40:03;;;;;;;2.92;2.13;;;15.60;44.10;;;;;;5008031;28;20211;-88
2024/04/06 00:42:30;;;;;;;4.38;1.85;;;15.60;45.30;;;;;;5015613;28;21663;-88
2024/04/06 00:44:56;;;;;;;3.13;1.80;;;15.60;44.70;;;;;;4999563;28;20199;-88
2024/04/06 00:47:23;;;;;;;3.47;1.77;;;15.60;44.50;;;;;;4995879;28;20203;-88
2024/04/06 00:49:49;;;;;;;4.82;1.70;;;15.60;45.20;;;;;;5003448;28;20238;-88
2024/04/06 00:52:15;;;;;;;4.18;2.55;;;15.50;44.70;;;;;;5012427;28;20200;-88
2024/04/06 00:54:41;;;;;;;3.03;2.13;;;15.60;43.80;;;;;;5013681;28;20590;-89
2024/04/06 00:57:10;;;;;;;3.80;2.00;;;15.60;44.40;;;;;;5008773;28;20231;-88
2024/04/06 00:59:37;;;;;;;5.22;1.83;;;15.60;49.50;;;;;;5016549;28;20203;-88
2024/04/06 01:02:05;;;;;;;5.03;1.92;;;15.50;51.80;;;;;;4997225;28;20253;-88
2024/04/06 01:04:30;;;;;;;3.10;1.75;;;15.50;54.90;;;;;;5020133;28;20224;-88
2024/04/06 01:06:57;;;;;;;2.40;2.20;;;15.40;54.30;;;;;;5005860;28;20258;-88
2024/04/06 01:09:23;;;;;;;2.63;1.85;;;15.40;51.70;;;;;;5013364;28;20207;-88
2024/04/06 01:11:50;;;;;;;4.15;1.90;;;15.60;50.60;;;;;;5008298;28;20207;-88
2024/04/06 01:14:18;;;;;;;4.32;1.80;;;15.60;46.20;;;;;;5013044;28;20237;-88
2024/04/06 01:16:44;;;;;;;2.53;1.58;;;15.60;47.10;;;;;;5007190;28;20222;-89
2024/04/06 01:19:10;;;;;;;2.67;1.70;;;15.50;47.90;;;;;;5010382;28;20215;-88
2024/04/06 01:21:37;;;;;;;3.15;2.25;;;15.60;51.90;;;;;;5012760;28;20204;-88
2024/04/06 01:24:05;;;;;;;2.50;1.80;;;15.60;48.20;;;;;;5012640;28;20207;-88
2024/04/06 01:26:32;;;;;;;3.00;2.25;;;15.50;47.60;;;;;;5008248;28;20582;-88
2024/04/06 01:28:58;;;;;;;5.55;1.92;;;15.50;48.80;;;;;;5009476;28;20203;-88
2024/04/06 01:31:25;;;;;;;2.58;1.75;;;15.40;49.30;;;;;;5012124;28;20203;-87
2024/04/06 01:33:51;;;;;;;3.40;1.52;;;15.40;51.80;;;;;;4993989;28;20195;-88
2024/04/06 01:36:18;;;;;;;3.58;1.60;;;15.40;48.40;;;;;;5010631;28;20223;-88
2024/04/06 01:38:44;;;;;;;3.40;2.50;;;15.40;48.90;;;;;;5011044;28;20203;-88
2024/04/06 01:41:12;;;;;;;1.80;1.70;;;15.30;51.10;;;;;;5000151;28;20544;-88
2024/04/06 01:43:38;;;;;;;3.55;1.63;;;15.30;51.60;;;;;;4996543;28;20199;-88
2024/04/06 01:46:05;;;;;;;1.60;1.50;;;15.30;51.60;;;;;;5012545;28;20204;-88
2024/04/06 01:48:31;;;;;;;3.80;1.75;;;15.30;51.60;;;;;;5012306;28;21328;-88
2024/04/06 01:50:58;;;;;;;3.65;1.90;;;15.20;51.60;;;;;;5000176;28;20203;-88
2024/04/06 01:53:24;;;;;;;2.35;1.55;;;15.20;53.20;;;;;;5012167;28;20209;-88
2024/04/06 01:55:50;;;;;;;2.58;1.80;;;15.20;55.20;;;;;;5012180;28;20203;-88
2024/04/06 01:58:18;;;;;;;4.53;2.00;;;15.10;55.60;;;;;;5012168;28;20688;-88
2024/04/06 02:00:45;;;;;;;3.40;1.80;;;15.10;55.40;;;;;;5007300;28;20231;-89
2024/04/06 02:03:10;;;;;;;2.92;1.65;;;15.10;56.40;;;;;;4998527;28;20250;-88
2024/04/06 02:05:37;;;;;;;4.25;2.08;;;15.10;58.00;;;;;;5010662;28;20199;-88
2024/04/06 02:08:03;;;;;;;7.03;1.80;;;15.10;56.10;;;;;;5008933;28;20226;-89
2024/04/06 02:10:30;;;;;;;2.50;1.80;;;15.00;56.20;;;;;;5010841;28;20258;-88
2024/04/06 02:12:56;;;;;;;2.55;1.70;;;15.00;57.50;;;;;;5012664;28;20192;-88
2024/04/06 02:15:25;;;;;;;3.05;2.13;;;15.00;56.50;;;;;;5010205;28;20211;-88
2024/04/06 02:17:52;;;;;;;2.00;1.52;;;15.00;57.00;;;;;;5009625;28;20218;-88
2024/04/06 02:20:19;;;;;;;2.10;1.80;;;15.00;56.60;;;;;;4990519;28;20230;-89
2024/04/06 02:22:45;;;;;;;1.85;1.55;;;15.00;57.00;;;;;;4996283;28;20672;-88
2024/04/06 02:25:11;;;;;;;1.85;1.75;;;15.00;56.00;;;;;;5010774;28;20202;-88
2024/04/06 02:27:55;;;;;;;2.35;1.77;;;15.00;55.00;;;;;;5005672;28;20203;-88
2024/04/06 02:30:23;;;;;;;2.75;1.73;;;15.00;56.10;;;;;;5006399;28;20303;-88
2024/04/06 02:32:49;;;;;;;2.85;1.90;;;15.00;56.30;;;;;;5003998;28;20208;-88
2024/04/06 02:35:16;;;;;;;2.92;2.10;;;15.00;56.30;;;;;;5007352;28;20207;-89
2024/04/06 02:37:43;;;;;;;1.88;1.70;;;15.10;55.30;;;;;;5014369;28;20219;-88
2024/04/06 02:40:10;;;;;;;2.72;1.73;;;15.10;52.60;;;;;;4997542;28;20207;-89
2024/04/06 02:42:36;;;;;;;3.92;1.65;;;15.10;54.10;;;;;;5011887;28;20210;-88
2024/04/06 02:45:04;;;;;;;2.40;1.60;;;15.10;55.20;;;;;;5012687;28;20203;-88
2024/04/06 02:47:32;;;;;;;2.70;1.98;;;15.00;56.10;;;;;;5010953;28;20218;-88
2024/04/06 02:49:59;;;;;;;3.67;1.85;;;15.00;57.40;;;;;;5011313;28;20219;-89
2024/04/06 02:52:24;;;;;;;2.75;1.40;;;14.90;58.40;;;;;;4993398;28;20199;-88
2024/04/06 02:54:51;;;;;;;4.47;1.73;;;14.90;56.30;;;;;;5010372;28;20222;-89
2024/04/06 02:57:18;;;;;;;3.40;1.58;;;14.90;57.70;;;;;;5008223;28;20218;-88
2024/04/06 02:59:45;;;;;;;3.58;1.67;;;14.80;58.20;;;;;;4991435;28;20261;-89
2024/04/06 03:02:11;;;;;;;3.97;1.70;;;14.70;57.00;;;;;;4993902;28;20203;-88
2024/04/06 03:04:41;;;;;;;2.63;1.90;;;14.70;58.60;;;;;;5011221;28;20257;-88
2024/04/06 03:07:06;;;;;;;2.65;1.70;;;14.70;58.80;;;;;;5010675;28;20199;-88
2024/04/06 03:09:35;;;;;;;2.83;1.73;;;14.70;58.50;;;;;;4998631;28;20213;-88
2024/04/06 03:12:01;;;;;;;1.95;1.75;;;14.60;59.50;;;;;;5003556;28;20219;-89
2024/04/06 03:14:28;;;;;;;2.05;1.65;;;14.60;61.30;;;;;;4992153;28;20207;-88
2024/04/06 03:16:54;;;;;;;6.05;1.95;;;14.60;60.10;;;;;;4993888;28;20219;-88
2024/04/06 03:19:21;;;;;;;2.25;1.90;;;14.50;60.50;;;;;;4988795;28;20237;-89
2024/04/06 03:21:48;;;;;;;4.90;1.92;;;14.60;61.60;;;;;;5007903;28;20195;-88
2024/04/06 03:24:15;;;;;;;1.88;1.70;;;14.60;60.90;;;;;;5010413;28;20195;-89
2024/04/06 03:26:43;;;;;;;2.17;1.75;;;14.60;64.00;;;;;;5005090;28;20212;-88
2024/04/06 03:29:09;;;;;;;2.05;1.60;;;14.50;62.90;;;;;;5016697;28;20207;-88
2024/04/06 03:31:35;;;;;;;1.90;1.45;;;14.50;62.60;;;;;;4986901;28;20542;-89
2024/04/06 03:34:02;;;;;;;4.60;1.60;;;14.50;62.30;;;;;;5008859;28;20266;-88
2024/04/06 03:36:28;;;;;;;2.30;1.60;;;14.50;63.20;;;;;;4995498;28;20214;-89
2024/04/06 03:38:56;;;;;;;3.83;1.83;;;14.50;61.80;;;;;;5007809;28;20207;-87
2024/04/06 03:41:23;;;;;;;2.78;1.85;;;14.50;61.80;;;;;;5008042;28;20203;-88
2024/04/06 03:43:49;;;;;;;3.25;1.95;;;14.60;62.40;;;;;;5009852;28;20219;-88
2024/04/06 03:46:16;;;;;;;2.33;1.67;;;14.50;63.60;;;;;;4993429;28;20195;-89
2024/04/06 03:48:42;;;;;;;2.88;1.80;;;14.50;62.20;;;;;;4997430;28;20226;-88
2024/04/06 03:51:09;;;;;;;3.05;1.70;;;14.50;62.70;;;;;;5010936;28;20207;-88
2024/04/06 03:53:38;;;;;;;3.20;1.80;;;14.50;63.50;;;;;;5010348;28;20211;-88
2024/04/06 03:56:07;;;;;;;3.17;1.70;;;14.40;62.40;;;;;;5011154;28;20204;-88
2024/04/06 03:58:32;;;;;;;2.50;1.95;;;14.40;64.10;;;;;;5000795;28;20219;-88
2024/04/06 04:00:59;;;;;;;5.63;2.05;;;14.40;66.60;;;;;;5014114;28;20217;-88
2024/04/06 04:03:26;;;;;;;5.13;1.70;;;14.30;70.40;;;;;;4996680;28;20939;-88
2024/04/06 04:05:53;;;;;;;4.18;1.75;;;14.20;72.30;;;;;;4959075;28;20200;-88
2024/04/06 04:08:18;;;;;;;3.00;1.67;;;14.20;74.40;;;;;;5000930;28;20211;-90
2024/04/06 04:10:45;;;;;;;2.47;1.67;;;14.20;73.60;;;;;;5003850;28;20651;-88
2024/04/06 04:13:13;;;;;;;2.17;1.70;;;14.00;73.80;;;;;;5020275;28;20196;-88
2024/04/06 04:15:41;;;;;;;3.00;1.67;;;14.00;75.40;;;;;;5014529;28;20226;-88
2024/04/06 04:18:08;;;;;;;3.90;1.85;;;13.90;75.40;;;;;;5015792;28;20219;-88
2024/04/06 04:20:35;;;;;;;3.95;1.90;;;13.80;75.50;;;;;;4996665;28;20230;-89
2024/04/06 04:23:02;;;;;;;1.85;1.50;;;13.70;76.40;;;;;;5011098;28;20199;-88
2024/04/06 04:25:29;;;;;;;2.67;1.73;;;13.50;76.20;;;;;;5011120;28;20199;-88
2024/04/06 04:27:55;;;;;;;1.83;1.73;;;13.40;76.20;;;;;;5009657;28;20206;-89
2024/04/06 04:30:24;;;;;;;3.55;1.70;;;13.40;77.40;;;;;;4997406;28;20298;-88
2024/04/06 04:32:50;;;;;;;2.58;1.77;;;13.20;77.30;;;;;;5012253;28;20669;-89
2024/04/06 04:35:16;;;;;;;3.80;1.63;;;13.20;78.30;;;;;;5011414;28;20201;-89
2024/04/06 04:37:42;;;;;;;2.70;1.88;;;13.10;80.00;;;;;;4996178;28;20222;-88
2024/04/06 04:40:10;;;;;;;2.85;1.73;;;13.00;80.40;;;;;;5012044;28;20199;-88
2024/04/06 04:42:36;;;;;;;2.53;1.50;;;13.00;81.00;;;;;;4993925;28;20217;-88
2024/04/06 04:45:08;;;;;;;2.13;1.60;;;13.00;82.90;;;;;;5011514;28;20636;-89
2024/04/06 04:47:35;;;;;;;1.92;1.65;;;13.00;83.20;;;;;;5011945;28;20195;-88
2024/04/06 04:50:02;;;;;;;2.50;1.98;;;13.00;83.80;;;;;;5012365;28;20215;-89
2024/04/06 04:52:28;;;;;;;4.20;1.70;;;13.10;84.40;;;;;;5011299;28;20206;-89
2024/04/06 04:54:55;;;;;;;3.72;1.70;;;13.20;84.70;;;;;;4996457;28;20555;-89
2024/04/06 04:57:21;;;;;;;2.90;1.50;;;13.10;84.60;;;;;;5013156;28;20219;-89
2024/04/06 04:59:48;;;;;;;3.03;2.25;;;13.20;85.50;;;;;;5012218;28;20222;-88
2024/04/06 05:02:14;;;;;;;2.67;2.13;;;13.20;85.80;;;;;;5019655;28;20207;-88
2024/04/06 05:04:43;;;;;;;1.98;1.75;;;13.30;85.90;;;;;;5012495;28;20616;-89
2024/04/06 05:07:09;;;;;;;2.88;1.88;;;13.30;86.90;;;;;;4994953;28;20203;-88
2024/04/06 05:09:36;;;;;;;2.60;1.80;;;13.30;87.30;;;;;;5009085;28;20215;-88
2024/04/06 05:12:03;;;;;;;1.92;1.70;;;13.30;86.80;;;;;;5008794;28;21784;-88
2024/04/06 05:14:29;;;;;;;2.72;1.45;;;13.40;86.60;;;;;;5013546;28;20211;-88
2024/04/06 05:16:56;;;;;;;2.78;1.63;;;13.40;84.80;;;;;;5009840;28;20387;-89
2024/04/06 05:19:21;;;;;;;3.13;1.63;;;13.40;84.90;;;;;;5010789;28;20210;-88
2024/04/06 05:21:50;;;;;;;4.20;1.80;;;13.40;86.10;;;;;;5017148;28;20747;-88
2024/04/06 05:24:16;;;;;;;2.13;1.92;;;13.40;85.60;;;;;;4995055;28;20630;-90
2024/04/06 05:26:44;;;;;;;1.70;1.60;;;13.50;85.00;;;;;;4977464;28;20199;-87
2024/04/06 05:29:11;;;;;;;2.60;1.70;;;13.50;84.80;;;;;;5016002;28;20200;-91
2024/04/06 05:31:39;;;;;;;2.33;1.90;;;13.60;84.70;;;;;;5010619;28;20250;-87
2024/04/06 05:34:05;;;;;;;2.80;1.70;;;13.60;83.90;;;;;;4976365;28;20231;-86
2024/04/06 05:36:32;;;;;;;4.28;1.83;;;13.60;82.80;;;;;;4996186;28;20211;-86
2024/04/06 05:38:59;;;;;;;1.85;1.60;;;13.70;82.70;;;;;;4999480;28;20225;-88
2024/04/06 05:41:26;;;;;;;4.43;1.90;;;13.70;82.10;;;;;;5010781;28;20660;-87
2024/04/06 05:43:53;;;;;;;2.95;1.58;;;13.80;81.70;;;;;;5011389;28;20192;-89
2024/04/06 05:46:19;;;;;;;3.65;1.98;;;13.80;81.50;;;;;;4995390;28;20199;-89
2024/04/06 05:48:45;;;;;;;2.72;2.00;;;13.90;82.60;;;;;;5015067;28;20229;-86
2024/04/06 05:51:12;;;;;;;2.13;1.77;;;13.90;82.80;;;;;;4993952;28;20199;-86
2024/04/06 05:53:40;;;;;;;4.97;2.00;;;14.00;81.70;;;;;;5014368;28;20207;-85
2024/04/06 05:56:09;;;;;;;4.50;1.80;;;14.00;81.60;;;;;;5011348;28;20196;-86
2024/04/06 05:58:35;;;;;;;2.83;2.10;;;14.10;82.10;;;;;;4973121;28;20717;-86
2024/04/06 06:01:01;;;;;;;2.70;2.17;;;14.10;81.60;;;;;;5010734;28;20222;-86
2024/04/06 06:03:27;;;;;;;3.30;2.08;;;14.20;81.50;;;;;;5010315;28;20568;-86
2024/04/06 06:05:54;;;;;;;4.70;2.00;;;14.30;80.00;;;;;;5005824;28;20196;-85
2024/04/06 06:08:20;;;;;;;3.67;2.10;;;14.40;79.70;;;;;;5010094;28;20214;-86
2024/04/06 06:10:47;;;;;;;3.70;2.13;;;14.50;78.60;;;;;;5010767;28;20195;-86
2024/04/06 06:13:14;;;;;;;3.80;2.30;;;14.60;78.00;;;;;;5013095;28;20196;-86
2024/04/06 06:15:41;;;;;;;3.15;2.00;;;14.80;77.20;;;;;;5011610;28;20277;-86
2024/04/06 06:18:07;;;;;;;2.00;1.80;;;14.90;77.20;;;;;;5010518;28;20219;-87
2024/04/06 06:20:33;;;;;;;3.45;2.38;;;15.10;76.60;;;;;;4995160;28;20203;-87
2024/04/06 06:22:59;;;;;;;4.05;2.00;;;15.20;73.00;;;;;;4998638;28;20202;-86
2024/04/06 06:25:26;;;;;;;2.47;1.95;;;15.40;72.40;;;;;;5012059;28;20199;-86
2024/04/06 06:27:52;;;;;;;2.42;1.92;;;15.80;62.40;;;;;;5003889;28;20246;-86
2024/04/06 06:30:20;;;;;;;6.53;1.92;;;16.50;56.20;;;;;;4999024;28;20227;-87
2024/04/06 06:32:46;;;;;;;3.97;1.77;;;17.30;48.30;;;;;;5006568;28;20195;-86
2024/04/06 06:35:13;;;;;;;2.05;1.75;;;17.80;40.90;;;;;;4992478;28;20198;-83
2024/04/06 06:37:39;;;;;;;2.95;1.77;;;18.20;35.20;;;;;;5009832;28;20219;-84
2024/04/06 06:40:06;;;;;;;3.90;1.67;;;18.60;32.90;;;;;;5002825;28;20283;-84
2024/04/06 06:42:32;;;;;;;3.25;1.50;;;19.20;26.90;;;;;;5011484;28;20212;-84
2024/04/06 06:45:04;;;;;;;4.13;1.65;;;19.50;22.90;;;;;;5020013;28;20191;-84
2024/04/06 06:47:32;;;;;;;2.95;1.48;;;19.80;21.80;;;;;;5010706;28;20222;-84
2024/04/06 06:49:59;;;;;;;2.75;1.52;;;20.00;20.40;;;;;;5010426;28;20229;-84
2024/04/06 06:52:25;;;;;;;1.85;1.60;;;19.90;20.10;;;;;;5010536;28;20210;-84
2024/04/06 06:54:52;;;;;;;2.25;1.67;;;20.00;20.30;;;;;;5015854;28;20203;-84
2024/04/06 06:57:18;;;;;;;2.65;2.22;;;20.10;17.50;;;;;;4992951;28;20262;-84
2024/04/06 06:59:45;;;;;;;1.63;1.52;;;20.10;18.40;;;;;;5012070;28;20652;-85
2024/04/06 07:02:10;;;;;;;1.60;1.50;;;20.20;17.30;;;;;;5013083;28;20649;-83
2024/04/06 07:04:42;;;;;;;2.10;1.60;;;20.30;17.50;;;;;;5010749;28;20206;-84
2024/04/06 07:07:08;;;;;;;4.13;1.77;;;20.20;19.10;;;;;;5006375;28;20199;-83
2024/04/06 07:09:37;;;;;;;3.55;1.67;;;20.10;20.40;;;;;;5011061;28;20660;-84
2024/04/06 07:12:03;;;;;;;1.75;1.60;;;20.00;20.30;;;;;;5010518;28;20208;-84
2024/04/06 07:14:30;;;;;;;2.88;1.50;;;19.90;18.70;;;;;;5009911;28;20192;-84
2024/04/06 07:16:56;;;;;;;2.42;2.13;;;20.00;17.40;;;;;;5008743;28;20195;-85
2024/04/06 07:19:23;;;;;;;2.75;1.50;;;20.10;17.80;;;;;;5007989;28;20237;-85
2024/04/06 07:21:50;;;;;;;2.10;1.80;;;20.00;18.40;;;;;;5008082;28;20206;-84
2024/04/06 07:24:17;;;;;;;1.77;1.65;;;20.10;16.60;;;;;;5005658;28;20212;-86
2024/04/06 07:26:43;;;;;;;2.55;1.50;;;20.00;16.60;;;;;;5003230;28;20214;-86
2024/04/06 07:29:10;;;;;;;1.63;1.52;;;20.00;17.50;;;;;;5002785;28;20203;-85
2024/04/06 07:31:36;;;;;;;2.10;1.80;;;20.00;18.10;;;;;;4983274;28;20207;-86
2024/04/06 07:34:03;;;;;;;2.38;1.40;;;20.30;16.00;;;;;;5005305;28;20656;-86
2024/04/06 07:36:28;;;;;;;1.52;1.42;;;20.70;15.60;;;;;;4993272;28;20204;-86
2024/04/06 07:38:59;;;;;;;1.40;1.30;;;21.20;16.50;;;;;;5007266;28;20216;-86
2024/04/06 07:41:25;;;;;;;1.75;1.65;;;22.00;14.50;;;;;;5010195;28;20207;-87
2024/04/06 07:43:53;;;;;;;2.55;1.70;;;23.20;13.00;;;;;;5012463;28;20207;-84
2024/04/06 07:46:18;;;;;;;3.13;1.70;;;23.20;11.30;;;;;;5007423;28;20201;-85
2024/04/06 07:48:45;;;;;;;2.67;1.65;;;23.30;10.60;;;;;;4991455;28;20224;-86
2024/04/06 07:51:12;;;;;;;1.55;1.30;;;22.90;10.70;;;;;;5011708;28;20215;-86
2024/04/06 07:53:38;;;;;;;1.80;1.50;;;22.60;12.60;;;;;;5010799;28;20207;-85
2024/04/06 07:56:06;;;;;;;1.85;1.42;;;22.30;12.40;;;;;;5010853;28;20206;-85
2024/04/06 07:58:33;;;;;;;2.78;1.60;;;22.20;12.40;;;;;;5012269;28;20704;-86
2024/04/06 08:01:01;;;;;;;1.75;1.63;;;22.10;12.30;;;;;;5008051;28;20215;-86
2024/04/06 08:03:28;;;;;;;2.00;1.40;;;22.10;12.30;;;;;;4985413;28;20207;-86
2024/04/06 08:05:54;;;;;;;2.42;1.52;;;22.30;12.50;;;;;;5018165;28;20199;-86
2024/04/06 08:08:21;;;;;;;3.22;1.73;;;22.60;12.60;;;;;;5004498;28;20210;-86
2024/04/06 08:10:47;;;;;;;4.13;1.58;;;22.80;12.80;;;;;;5008704;28;20264;-86
2024/04/06 08:13:15;;;;;;;1.63;1.30;;;22.80;12.80;;;;;;5010734;28;21031;-86
2024/04/06 08:15:41;;;;;;;3.85;2.25;;;22.90;12.80;;;;;;5009224;28;20196;-86
2024/04/06 08:18:08;;;;;;;23.15;20.80;;;22.90;12.00;;;;;;5006912;28;20246;-87
2024/04/06 08:20:36;;;;;;;2.20;2.00;;;22.90;12.90;;;;;;5008364;28;20207;-86
2024/04/06 08:23:03;;;;;;;5.60;3.22;;;22.80;12.80;;;;;;5008863;28;20195;-86
2024/04/06 08:25:29;;;;;;;4.43;4.03;;;22.90;12.80;;;;;;4995195;28;20215;-85
2024/04/06 08:27:55;;;;;;;3.67;1.70;;;22.80;12.80;;;;;;5013109;28;20638;-86
2024/04/06 08:30:23;;;;;;;3.40;1.85;;;23.30;12.50;;;;;;4998858;28;20245;-86
2024/04/06 08:32:56;;;;;;;33.75;22.33;;;23.40;13.20;;;;;;5010659;28;20230;-87
2024/04/06 08:35:22;;;;;;;3.22;1.70;;;23.30;12.10;;;;;;5015427;28;20203;-86
2024/04/06 08:37:50;;;;;;;3.25;1.45;;;23.40;10.70;;;;;;5011303;28;20219;-86
2024/04/06 08:40:16;;;;;;;3.38;1.48;;;23.60;10.40;;;;;;5012994;28;20203;-86
2024/04/06 08:42:44;;;;;;;5.72;1.70;;;23.70;11.30;;;;;;5014600;28;20253;-86
2024/04/06 08:45:12;;;;;;;3.17;2.10;;;24.00;11.20;;;;;;5009765;28;20207;-86
2024/04/06 08:47:41;;;;;;;2.30;1.60;;;24.10;9.90;;;;;;5008234;28;20199;-86
2024/04/06 08:50:09;;;;;;;1.73;1.60;;;24.50;9.90;;;;;;5008276;28;20214;-83
2024/04/06 08:55:17;;;;;;;2.00;1.80;;;24.90;8.90;;;;;;5007349;28;20207;-92
2024/04/06 08:57:43;;;;;;;2.60;1.75;;;25.30;9.60;;;;;;5014031;28;20186;-91
2024/04/06 09:00:11;;;;;;;2.50;1.80;;;26.20;8.60;;;;;;5193083;22;22999;-93
2024/04/06 09:05:15;;;;;;;2.83;2.10;;;28.00;5.30;;;;;;5102111;22;20228;-92
2024/04/06 09:07:41;;;;;;;2.40;1.80;;;27.70;4.20;;;;;;5018196;28;20207;-92
2024/04/06 09:10:08;;;;;;;4.57;2.17;;;27.60;4.10;;;;;;5025211;28;20240;-94
2024/04/06 09:12:34;;;;;;;5.50;1.80;;;27.80;3.80;;;;;;5017900;28;20207;-94
2024/04/06 09:15:01;;;;;;;2.17;1.80;;;28.20;2.70;;;;;;5025655;28;20205;-94
2024/04/06 09:17:29;;;;;;;2.60;2.35;;;29.20;2.80;;;;;;5017802;28;20660;-92
2024/04/06 09:19:56;;;;;;;3.45;2.35;;;30.20;1.90;;;;;;4978537;28;20285;-92
2024/04/06 09:22:24;;;;;;;2.67;2.20;;;30.40;1.60;;;;;;4989604;28;20206;-87
2024/04/06 09:24:55;;;;;;;2.65;2.20;;;30.10;1.10;;;;;;5009601;28;20195;-88
2024/04/06 09:27:21;;;;;;;2.20;2.00;;;30.10;1.40;;;;;;5010393;28;20816;-87
2024/04/06 09:29:48;;;;;;;4.40;2.35;;;30.30;1.00;;;;;;5009733;28;20213;-88
2024/04/06 09:32:18;;;;;;;2.60;2.40;;;29.80;1.00;;;;;;5005216;28;20195;-88
2024/04/06 09:34:49;;;;;;;3.00;2.65;;;30.00;1.00;;;;;;5007265;28;20607;-88
2024/04/06 09:37:19;;;;;;;2.55;2.35;;;30.30;1.00;;;;;;5005107;28;20225;-88
2024/04/06 09:39:49;;;;;;;2.80;2.60;;;30.90;1.00;;;;;;4988210;28;21027;-88
2024/04/06 09:42:16;;;;;;;3.00;2.70;;;31.70;1.00;;;;;;5008395;28;20198;-88
2024/04/06 09:44:43;;;;;;;2.97;2.60;;;32.50;1.00;;;;;;5008391;28;20210;-89
2024/04/06 09:47:10;;;;;;;3.10;2.80;;;32.90;1.00;;;;;;5010312;28;20207;-89
2024/04/06 09:49:39;;;;;;;3.17;2.42;;;32.60;1.00;;;;;;4996286;28;20214;-89
2024/04/06 09:52:05;;;;;;;3.00;2.80;;;32.80;1.00;;;;;;5012474;28;20202;-88
2024/04/06 09:54:32;;;;;;;2.72;2.53;;;33.00;1.00;;;;;;5011703;28;20201;-89
2024/04/06 09:57:00;;;;;;;2.95;2.65;;;32.40;1.00;;;;;;5007864;28;20206;-90
2024/04/06 09:59:29;;;;;;;3.00;2.70;;;32.50;1.00;;;;;;5010100;28;20222;-89
2024/04/06 10:01:56;;;;;;;4.53;3.10;;;32.10;1.00;;;;;;5009542;28;20285;-89
2024/04/06 10:04:25;;;;;;;2.72;2.53;;;32.40;1.00;;;;;;5013338;28;20218;-91
2024/04/06 10:06:53;;;;;;;2.65;2.30;;;32.50;1.00;;;;;;4990127;28;20203;-89
2024/04/06 10:09:19;;;;;;;5.18;2.53;;;31.70;1.00;;;;;;5011745;28;20198;-88
2024/04/06 10:11:45;;;;;;;5.63;2.70;;;31.60;1.00;;;;;;5010868;28;20202;-88
2024/04/06 10:14:14;;;;;;;4.68;2.60;;;30.50;1.00;;;;;;5009285;28;20217;-88
2024/04/06 10:16:40;;;;;;;3.78;2.78;;;29.80;1.00;;;;;;5010064;28;20233;-88
2024/04/06 10:19:08;;;;;;;2.70;2.50;;;30.50;1.00;;;;;;5009919;28;20958;-87
2024/04/06 10:21:36;;;;;;;4.85;3.03;;;30.50;1.00;;;;;;5007829;28;20199;-90
2024/04/06 10:24:10;;;;;;;3.70;2.30;;;30.40;1.00;;;;;;4990869;28;20206;-87
2024/04/06 10:26:45;;;;;;;2.25;2.08;;;29.70;1.00;;;;;;5011457;28;20198;-88
2024/04/06 10:29:14;;;;;;;3.88;2.42;;;29.70;1.00;;;;;;5010851;28;20198;-88
2024/04/06 10:31:41;;;;;;;3.30;3.10;;;30.10;1.00;;;;;;5003337;28;20210;-88
2024/04/06 10:34:08;;;;;;;6.15;3.20;;;30.50;1.00;;;;;;5003954;28;20202;-88
2024/04/06 10:36:34;;;;;;;2.75;2.58;;;31.50;1.00;;;;;;5005231;28;20207;-88
2024/04/06 10:39:04;;;;;;;2.40;2.20;;;31.50;1.00;;;;;;5003216;28;20663;-88
2024/04/06 10:41:31;;;;;;;3.15;2.30;;;31.20;1.00;;;;;;5000315;28;20202;-88
2024/04/06 10:43:57;;;;;;;4.10;2.20;;;31.40;1.00;;;;;;5006436;28;20842;-88
2024/04/06 10:46:26;;;;;;;2.50;2.30;;;30.90;1.00;;;;;;4999232;28;20203;-88
2024/04/06 10:48:53;;;;;;;5.80;2.10;;;30.80;1.00;;;;;;5006744;28;20222;-90
2024/04/06 10:51:19;;;;;;;2.85;1.80;;;31.10;1.00;;;;;;5004699;28;20202;-90
2024/04/06 10:53:46;;;;;;;4.00;2.38;;;30.00;1.00;;;;;;5008268;28;20225;-91
2024/04/06 10:56:13;;;;;;;4.95;2.17;;;29.50;1.00;;;;;;5007038;28;20262;-92
2024/04/06 10:58:39;;;;;;;4.80;4.40;;;29.00;1.00;;;;;;5005583;28;20305;-91
2024/04/06 11:01:14;;;;;;;17.40;14.48;;;28.80;1.00;;;;;;4985807;28;20285;-88
2024/04/06 11:03:42;;;;;;;10.43;9.50;;;29.70;1.00;;;;;;5004859;28;20302;-88
2024/04/06 11:06:10;;;;;;;3.65;2.20;;;29.60;1.00;;;;;;5004484;28;20202;-91
2024/04/06 11:08:36;;;;;;;3.33;2.65;;;29.30;1.20;;;;;;5004050;28;20581;-89
2024/04/06 11:11:03;;;;;;;3.15;1.92;;;29.40;1.00;;;;;;5002701;28;20210;-87
2024/04/06 11:13:30;;;;;;;2.58;1.70;;;29.10;2.20;;;;;;5007866;28;20195;-88
2024/04/06 11:15:56;;;;;;;2.10;1.90;;;28.90;1.40;;;;;;4992631;28;20194;-87
2024/04/06 11:18:22;;;;;;;2.58;1.90;;;28.50;3.50;;;;;;5006144;28;20234;-87
2024/04/06 11:20:50;;;;;;;2.03;1.80;;;28.30;1.00;;;;;;5005848;28;20198;-87
2024/04/06 11:23:17;;;;;;;1.80;1.70;;;28.10;1.00;;;;;;5007054;28;20594;-86
2024/04/06 11:25:44;;;;;;;2.00;1.73;;;28.10;1.00;;;;;;5007832;28;20294;-87
2024/04/06 11:28:10;;;;;;;2.58;1.60;;;28.30;1.00;;;;;;4990554;28;20653;-86
2024/04/06 11:30:38;;;;;;;2.35;1.90;;;28.00;1.00;;;;;;4988006;28;20294;-87
2024/04/06 11:33:04;;;;;;;1.92;1.70;;;27.90;1.00;;;;;;5007597;28;21158;-86
2024/04/06 11:35:31;;;;;;;2.70;1.70;;;28.00;1.10;;;;;;5003696;28;20286;-85
2024/04/06 11:37:58;;;;;;;1.88;1.40;;;27.80;1.00;;;;;;5008007;28;20226;-86
2024/04/06 11:40:25;;;;;;;1.95;1.73;;;28.00;1.00;;;;;;5011034;28;20202;-86
2024/04/06 11:42:51;;;;;;;2.15;1.60;;;28.10;1.00;;;;;;5008946;28;20221;-85
2024/04/06 11:45:18;;;;;;;3.45;1.95;;;27.90;1.00;;;;;;5009593;28;20568;-85
2024/04/06 11:47:44;;;;;;;4.85;4.38;;;27.60;1.10;;;;;;5005549;28;20198;-86
2024/04/06 11:50:11;;;;;;;3.42;1.88;;;27.60;1.00;;;;;;5009192;28;20234;-86
2024/04/06 11:52:38;;;;;;;2.92;1.45;;;27.60;1.00;;;;;;5001418;28;20199;-85
2024/04/06 11:55:06;;;;;;;3.90;1.83;;;27.70;1.00;;;;;;5004807;28;20573;-85
2024/04/06 11:57:32;;;;;;;1.95;1.67;;;27.60;1.00;;;;;;5007593;28;20206;-86
2024/04/06 12:00:02;;;;;;;4.53;2.40;;;27.50;1.00;;;;;;4984960;28;20234;-85
2024/04/06 12:02:28;;;;;;;3.33;1.63;;;27.40;1.00;;;;;;5005641;28;20210;-86
2024/04/06 12:04:55;;;;;;;3.42;1.77;;;27.50;1.00;;;;;;4991117;28;20207;-85
2024/04/06 12:07:21;;;;;;;1.38;1.27;;;27.60;1.00;;;;;;5011689;28;20652;-85
2024/04/06 12:09:48;;;;;;;2.17;1.77;;;27.80;2.00;;;;;;4992482;28;20261;-85
2024/04/06 12:12:15;;;;;;;2.60;1.40;;;27.80;1.00;;;;;;5008518;28;20210;-85
2024/04/06 12:14:42;;;;;;;1.98;1.40;;;27.80;1.00;;;;;;5008853;28;20207;-86
2024/04/06 12:17:12;;;;;;;1.50;1.40;;;27.70;1.00;;;;;;5005589;28;20232;-85
2024/04/06 12:19:38;;;;;;;1.40;1.30;;;27.60;1.00;;;;;;5002603;28;20223;-85
2024/04/06 12:22:05;;;;;;;5.60;1.40;;;27.70;1.00;;;;;;5010062;28;20210;-85
2024/04/06 12:24:31;;;;;;;1.58;1.48;;;27.80;1.00;;;;;;5012546;28;20203;-87
2024/04/06 12:26:58;;;;;;;1.73;1.40;;;27.60;1.00;;;;;;5011427;28;20214;-85
2024/04/06 12:29:26;;;;;;;1.75;1.60;;;27.40;1.00;;;;;;5010048;28;20211;-88
2024/04/06 12:31:53;;;;;;;1.35;1.25;;;27.30;1.00;;;;;;5008779;28;20286;-85
2024/04/06 12:34:20;;;;;;;1.75;1.45;;;27.40;1.00;;;;;;4992205;28;20203;-86
2024/04/06 12:36:47;;;;;;;3.60;1.65;;;27.30;1.00;;;;;;5008682;28;20209;-87
2024/04/06 12:39:16;;;;;;;1.70;1.48;;;27.10;1.00;;;;;;5007645;28;20226;-86
2024/04/06 12:41:44;;;;;;;2.42;1.30;;;27.10;1.00;;;;;;5007181;28;20705;-87
2024/04/06 12:44:09;;;;;;;1.40;1.30;;;26.90;1.00;;;;;;5012215;28;20704;-87
2024/04/06 12:46:38;;;;;;;1.42;1.33;;;26.80;1.00;;;;;;5010418;28;20206;-87
2024/04/06 12:49:06;;;;;;;2.25;1.50;;;26.70;1.00;;;;;;4989388;28;20233;-87
2024/04/06 12:51:33;;;;;;;1.63;1.52;;;26.70;1.00;;;;;;4990236;28;20233;-84
2024/04/06 12:53:58;;;;;;;1.50;1.40;;;26.80;1.00;;;;;;4994318;28;20191;-87